sensor_id;sensor_type;location;lat;lon;timestamp;temperature;humidity
76577;DHT22;65441;44.748;37.600;2023-03-31T00:01:33;3.56;82.13
76577;DHT22;65441;44.748;37.600;2023-03-31T00:04:01;3.59;80.31
76577;DHT22;65441;44.748;37.600;2023-03-31T00:06:33;3.63;79.38
76577;DHT22;65441;44.748;37.600;2023-03-31T00:09:04;3.74;79.71
76577;DHT22;65441;44.748;37.600;2023-03-31T00:11:35;3.82;80.24
76577;DHT22;65441;44.748;37.600;2023-03-31T00:14:04;3.98;79.01
76577;DHT22;65441;44.748;37.600;2023-03-31T00:16:34;4.04;81.28
76577;DHT22;65441;44.748;37.600;2023-03-31T00:19:03;3.93;80.31
76577;DHT22;65441;44.748;37.600;2023-03-31T00:21:31;4.03;79.79
76577;DHT22;65441;44.748;37.600;2023-03-31T00:24:03;3.90;79.31
76577;DHT22;65441;44.748;37.600;2023-03-31T00:26:34;3.91;79.88
76577;DHT22;65441;44.748;37.600;2023-03-31T00:29:05;3.94;79.82
76577;DHT22;65441;44.748;37.600;2023-03-31T00:31:34;4.00;79.98
76577;DHT22;65441;44.748;37.600;2023-03-31T00:34:05;3.79;78.70
76577;DHT22;65441;44.748;37.600;2023-03-31T00:36:34;3.89;80.17
76577;DHT22;65441;44.748;37.600;2023-03-31T00:39:15;3.95;81.68
76577;DHT22;65441;44.748;37.600;2023-03-31T00:41:45;3.98;80.00
76577;DHT22;65441;44.748;37.600;2023-03-31T00:44:17;3.87;79.07
76577;DHT22;65441;44.748;37.600;2023-03-31T00:46:52;3.90;78.43
76577;DHT22;65441;44.748;37.600;2023-03-31T00:49:26;3.90;77.00
76577;DHT22;65441;44.748;37.600;2023-03-31T00:52:00;3.99;76.52
76577;DHT22;65441;44.748;37.600;2023-03-31T00:54:33;4.04;76.13
76577;DHT22;65441;44.748;37.600;2023-03-31T00:57:06;4.08;76.49
76577;DHT22;65441;44.748;37.600;2023-03-31T00:59:38;4.12;75.50
76577;DHT22;65441;44.748;37.600;2023-03-31T01:02:08;4.22;76.65
76577;DHT22;65441;44.748;37.600;2023-03-31T01:04:42;4.17;75.56
76577;DHT22;65441;44.748;37.600;2023-03-31T01:07:17;4.19;75.95
76577;DHT22;65441;44.748;37.600;2023-03-31T01:09:50;4.23;74.17
76577;DHT22;65441;44.748;37.600;2023-03-31T01:12:23;4.34;74.75
76577;DHT22;65441;44.748;37.600;2023-03-31T01:14:53;4.41;75.37
76577;DHT22;65441;44.748;37.600;2023-03-31T01:17:23;4.46;76.14
76577;DHT22;65441;44.748;37.600;2023-03-31T01:20:02;4.49;74.43
76577;DHT22;65441;44.748;37.600;2023-03-31T01:23:02;4.52;75.72
76577;DHT22;65441;44.748;37.600;2023-03-31T01:25:54;4.59;74.99
76577;DHT22;65441;44.748;37.600;2023-03-31T01:28:35;4.60;75.04
76577;DHT22;65441;44.748;37.600;2023-03-31T01:31:25;4.54;74.22
76577;DHT22;65441;44.748;37.600;2023-03-31T01:34:37;4.53;73.41
76577;DHT22;65441;44.748;37.600;2023-03-31T01:37:29;4.57;72.86
76577;DHT22;65441;44.748;37.600;2023-03-31T01:40:23;4.64;74.93
76577;DHT22;65441;44.748;37.600;2023-03-31T01:42:57;4.62;73.51
76577;DHT22;65441;44.748;37.600;2023-03-31T01:45:35;4.73;73.41
76577;DHT22;65441;44.748;37.600;2023-03-31T01:48:11;4.72;72.16
76577;DHT22;65441;44.748;37.600;2023-03-31T01:50:47;4.78;73.70
76577;DHT22;65441;44.748;37.600;2023-03-31T01:53:25;4.82;72.22
76577;DHT22;65441;44.748;37.600;2023-03-31T01:56:03;4.76;71.37
76577;DHT22;65441;44.748;37.600;2023-03-31T01:58:35;4.79;71.68
76577;DHT22;65441;44.748;37.600;2023-03-31T02:01:12;4.79;72.76
76577;DHT22;65441;44.748;37.600;2023-03-31T02:03:47;4.82;72.06
76577;DHT22;65441;44.748;37.600;2023-03-31T02:06:22;4.79;72.16
76577;DHT22;65441;44.748;37.600;2023-03-31T02:08:56;4.74;72.80
76577;DHT22;65441;44.748;37.600;2023-03-31T02:11:28;4.72;74.12
76577;DHT22;65441;44.748;37.600;2023-03-31T02:13:59;4.68;74.28
76577;DHT22;65441;44.748;37.600;2023-03-31T02:16:31;4.62;75.55
76577;DHT22;65441;44.748;37.600;2023-03-31T02:19:04;4.53;78.08
76577;DHT22;65441;44.748;37.600;2023-03-31T02:21:36;4.52;78.99
76577;DHT22;65441;44.748;37.600;2023-03-31T02:24:10;4.57;79.37
76577;DHT22;65441;44.748;37.600;2023-03-31T02:26:44;4.44;80.75
76577;DHT22;65441;44.748;37.600;2023-03-31T02:29:17;4.36;80.98
76577;DHT22;65441;44.748;37.600;2023-03-31T02:31:50;4.33;81.51
76577;DHT22;65441;44.748;37.600;2023-03-31T02:34:20;4.35;81.47
76577;DHT22;65441;44.748;37.600;2023-03-31T02:36:49;4.38;81.16
76577;DHT22;65441;44.748;37.600;2023-03-31T02:39:22;4.33;81.88
76577;DHT22;65441;44.748;37.600;2023-03-31T02:41:55;4.38;81.63
76577;DHT22;65441;44.748;37.600;2023-03-31T02:44:24;4.38;81.08
76577;DHT22;65441;44.748;37.600;2023-03-31T02:46:54;4.33;81.77
76577;DHT22;65441;44.748;37.600;2023-03-31T02:49:23;4.39;81.55
76577;DHT22;65441;44.748;37.600;2023-03-31T02:52:17;4.38;81.63
76577;DHT22;65441;44.748;37.600;2023-03-31T02:55:17;4.34;82.28
76577;DHT22;65441;44.748;37.600;2023-03-31T02:58:08;4.32;82.81
76577;DHT22;65441;44.748;37.600;2023-03-31T03:00:52;4.31;83.23
76577;DHT22;65441;44.748;37.600;2023-03-31T03:03:39;4.33;82.86
76577;DHT22;65441;44.748;37.600;2023-03-31T03:06:21;4.39;83.02
76577;DHT22;65441;44.748;37.600;2023-03-31T03:09:11;4.37;82.49
76577;DHT22;65441;44.748;37.600;2023-03-31T03:11:47;4.39;82.33
76577;DHT22;65441;44.748;37.600;2023-03-31T03:14:27;4.41;82.45
76577;DHT22;65441;44.748;37.600;2023-03-31T03:16:59;4.53;81.72
76577;DHT22;65441;44.748;37.600;2023-03-31T03:19:29;4.71;81.01
76577;DHT22;65441;44.748;37.600;2023-03-31T03:21:57;4.72;80.34
76577;DHT22;65441;44.748;37.600;2023-03-31T03:24:26;4.75;80.68
76577;DHT22;65441;44.748;37.600;2023-03-31T03:26:55;4.73;81.75
76577;DHT22;65441;44.748;37.600;2023-03-31T03:29:26;4.69;81.75
76577;DHT22;65441;44.748;37.600;2023-03-31T03:31:54;4.76;82.22
76577;DHT22;65441;44.748;37.600;2023-03-31T03:34:23;4.79;82.66
76577;DHT22;65441;44.748;37.600;2023-03-31T03:36:53;4.83;81.68
76577;DHT22;65441;44.748;37.600;2023-03-31T03:39:21;4.82;82.01
76577;DHT22;65441;44.748;37.600;2023-03-31T03:41:50;4.84;82.08
76577;DHT22;65441;44.748;37.600;2023-03-31T03:44:19;4.83;82.78
76577;DHT22;65441;44.748;37.600;2023-03-31T03:46:49;4.86;83.10
76577;DHT22;65441;44.748;37.600;2023-03-31T03:49:18;4.90;83.27
76577;DHT22;65441;44.748;37.600;2023-03-31T03:51:47;4.91;82.42
76577;DHT22;65441;44.748;37.600;2023-03-31T03:54:16;4.94;81.69
76577;DHT22;65441;44.748;37.600;2023-03-31T03:56:44;4.96;81.19
76577;DHT22;65441;44.748;37.600;2023-03-31T03:59:13;5.04;81.19
76577;DHT22;65441;44.748;37.600;2023-03-31T04:01:42;5.10;81.24
76577;DHT22;65441;44.748;37.600;2023-03-31T04:04:12;5.12;80.66
76577;DHT22;65441;44.748;37.600;2023-03-31T04:06:41;5.23;80.95
76577;DHT22;65441;44.748;37.600;2023-03-31T04:09:10;5.27;81.50
76577;DHT22;65441;44.748;37.600;2023-03-31T04:11:39;5.39;81.28
76577;DHT22;65441;44.748;37.600;2023-03-31T04:14:07;5.45;80.23
76577;DHT22;65441;44.748;37.600;2023-03-31T04:16:36;5.47;77.55
76577;DHT22;65441;44.748;37.600;2023-03-31T04:19:06;5.60;78.15
76577;DHT22;65441;44.748;37.600;2023-03-31T04:21:39;5.62;77.71
76577;DHT22;65441;44.748;37.600;2023-03-31T04:24:11;5.68;78.46
76577;DHT22;65441;44.748;37.600;2023-03-31T04:26:42;5.66;77.09
76577;DHT22;65441;44.748;37.600;2023-03-31T04:29:12;5.69;77.59
76577;DHT22;65441;44.748;37.600;2023-03-31T04:31:42;5.74;77.63
76577;DHT22;65441;44.748;37.600;2023-03-31T04:34:12;5.71;77.56
76577;DHT22;65441;44.748;37.600;2023-03-31T04:36:44;5.80;75.50
76577;DHT22;65441;44.748;37.600;2023-03-31T04:39:30;5.90;77.76
76577;DHT22;65441;44.748;37.600;2023-03-31T04:42:00;5.89;74.33
76577;DHT22;65441;44.748;37.600;2023-03-31T04:44:29;5.87;73.64
76577;DHT22;65441;44.748;37.600;2023-03-31T04:46:59;5.94;73.73
76577;DHT22;65441;44.748;37.600;2023-03-31T04:49:29;6.02;72.60
76577;DHT22;65441;44.748;37.600;2023-03-31T04:52:01;6.09;71.16
76577;DHT22;65441;44.748;37.600;2023-03-31T04:54:30;6.21;70.48
76577;DHT22;65441;44.748;37.600;2023-03-31T04:56:58;6.27;70.92
76577;DHT22;65441;44.748;37.600;2023-03-31T04:59:27;6.37;70.11
76577;DHT22;65441;44.748;37.600;2023-03-31T05:01:56;6.41;68.80
76577;DHT22;65441;44.748;37.600;2023-03-31T05:04:25;6.52;71.44
76577;DHT22;65441;44.748;37.600;2023-03-31T05:06:54;6.71;70.23
76577;DHT22;65441;44.748;37.600;2023-03-31T05:09:25;6.83;69.03
76577;DHT22;65441;44.748;37.600;2023-03-31T05:11:55;6.99;66.00
76577;DHT22;65441;44.748;37.600;2023-03-31T05:14:24;7.24;65.99
76577;DHT22;65441;44.748;37.600;2023-03-31T05:16:54;7.67;65.21
76577;DHT22;65441;44.748;37.600;2023-03-31T05:19:24;8.13;63.92
76577;DHT22;65441;44.748;37.600;2023-03-31T05:21:53;8.56;60.64
76577;DHT22;65441;44.748;37.600;2023-03-31T05:24:22;8.96;58.63
76577;DHT22;65441;44.748;37.600;2023-03-31T05:26:52;9.09;55.86
76577;DHT22;65441;44.748;37.600;2023-03-31T05:29:22;9.19;55.42
76577;DHT22;65441;44.748;37.600;2023-03-31T05:31:52;9.62;56.11
76577;DHT22;65441;44.748;37.600;2023-03-31T05:34:21;9.71;55.20
76577;DHT22;65441;44.748;37.600;2023-03-31T05:36:50;9.98;56.97
76577;DHT22;65441;44.748;37.600;2023-03-31T05:39:20;10.11;54.23
76577;DHT22;65441;44.748;37.600;2023-03-31T05:41:49;9.62;53.46
76577;DHT22;65441;44.748;37.600;2023-03-31T05:44:19;9.27;53.63
76577;DHT22;65441;44.748;37.600;2023-03-31T05:46:48;9.14;55.73
76577;DHT22;65441;44.748;37.600;2023-03-31T05:49:17;9.03;56.90
76577;DHT22;65441;44.748;37.600;2023-03-31T05:51:46;8.90;58.23
76577;DHT22;65441;44.748;37.600;2023-03-31T05:54:14;8.82;59.16
76577;DHT22;65441;44.748;37.600;2023-03-31T05:56:43;8.73;57.33
76577;DHT22;65441;44.748;37.600;2023-03-31T05:59:12;8.67;57.82
76577;DHT22;65441;44.748;37.600;2023-03-31T06:01:42;8.65;57.60
76577;DHT22;65441;44.748;37.600;2023-03-31T06:04:11;8.87;58.28
76577;DHT22;65441;44.748;37.600;2023-03-31T06:06:40;9.18;57.93
76577;DHT22;65441;44.748;37.600;2023-03-31T06:09:09;9.33;58.40
76577;DHT22;65441;44.748;37.600;2023-03-31T06:11:39;9.40;58.06
76577;DHT22;65441;44.748;37.600;2023-03-31T06:14:07;9.24;57.28
76577;DHT22;65441;44.748;37.600;2023-03-31T06:16:36;9.32;55.29
76577;DHT22;65441;44.748;37.600;2023-03-31T06:19:06;9.62;55.97
76577;DHT22;65441;44.748;37.600;2023-03-31T06:21:34;9.42;56.77
76577;DHT22;65441;44.748;37.600;2023-03-31T06:24:03;9.60;54.58
76577;DHT22;65441;44.748;37.600;2023-03-31T06:26:32;9.57;56.16
76577;DHT22;65441;44.748;37.600;2023-03-31T06:29:00;9.96;57.45
76577;DHT22;65441;44.748;37.600;2023-03-31T06:31:29;10.78;56.48
76577;DHT22;65441;44.748;37.600;2023-03-31T06:33:58;10.51;52.78
76577;DHT22;65441;44.748;37.600;2023-03-31T06:36:28;10.50;53.82
76577;DHT22;65441;44.748;37.600;2023-03-31T06:38:56;10.90;52.28
76577;DHT22;65441;44.748;37.600;2023-03-31T06:41:28;10.68;53.06
76577;DHT22;65441;44.748;37.600;2023-03-31T06:43:56;10.90;53.17
76577;DHT22;65441;44.748;37.600;2023-03-31T06:46:25;10.80;53.01
76577;DHT22;65441;44.748;37.600;2023-03-31T06:49:01;10.93;54.52
76577;DHT22;65441;44.748;37.600;2023-03-31T06:51:32;11.15;50.88
76577;DHT22;65441;44.748;37.600;2023-03-31T06:54:00;11.13;51.03
76577;DHT22;65441;44.748;37.600;2023-03-31T06:56:29;11.31;52.50
76577;DHT22;65441;44.748;37.600;2023-03-31T06:58:58;11.10;50.64
76577;DHT22;65441;44.748;37.600;2023-03-31T07:01:27;11.40;50.14
76577;DHT22;65441;44.748;37.600;2023-03-31T07:03:55;11.33;48.65
76577;DHT22;65441;44.748;37.600;2023-03-31T07:06:24;12.06;50.26
76577;DHT22;65441;44.748;37.600;2023-03-31T07:08:54;12.34;48.74
76577;DHT22;65441;44.748;37.600;2023-03-31T07:11:23;12.35;51.75
76577;DHT22;65441;44.748;37.600;2023-03-31T07:13:51;12.63;49.84
76577;DHT22;65441;44.748;37.600;2023-03-31T07:16:20;11.96;49.01
76577;DHT22;65441;44.748;37.600;2023-03-31T07:18:49;12.79;56.27
76577;DHT22;65441;44.748;37.600;2023-03-31T07:21:21;13.82;46.35
76577;DHT22;65441;44.748;37.600;2023-03-31T07:23:49;13.98;44.13
76577;DHT22;65441;44.748;37.600;2023-03-31T07:26:20;13.86;45.64
76577;DHT22;65441;44.748;37.600;2023-03-31T07:28:48;13.51;45.95
76577;DHT22;65441;44.748;37.600;2023-03-31T07:31:17;13.36;47.04
76577;DHT22;65441;44.748;37.600;2023-03-31T07:33:46;13.98;42.92
76577;DHT22;65441;44.748;37.600;2023-03-31T07:36:15;14.24;44.93
76577;DHT22;65441;44.748;37.600;2023-03-31T07:38:45;14.19;43.48
76577;DHT22;65441;44.748;37.600;2023-03-31T07:41:17;14.89;44.82
76577;DHT22;65441;44.748;37.600;2023-03-31T07:43:48;14.37;44.40
76577;DHT22;65441;44.748;37.600;2023-03-31T07:46:18;14.78;45.97
76577;DHT22;65441;44.748;37.600;2023-03-31T07:48:48;15.21;41.22
76577;DHT22;65441;44.748;37.600;2023-03-31T07:51:18;14.87;43.26
76577;DHT22;65441;44.748;37.600;2023-03-31T07:53:48;14.28;40.99
76577;DHT22;65441;44.748;37.600;2023-03-31T07:56:19;14.52;43.64
76577;DHT22;65441;44.748;37.600;2023-03-31T07:58:50;14.67;43.83
76577;DHT22;65441;44.748;37.600;2023-03-31T08:01:20;14.65;42.75
76577;DHT22;65441;44.748;37.600;2023-03-31T08:03:52;13.98;41.06
76577;DHT22;65441;44.748;37.600;2023-03-31T08:06:23;14.03;43.21
76577;DHT22;65441;44.748;37.600;2023-03-31T08:08:53;13.94;44.62
76577;DHT22;65441;44.748;37.600;2023-03-31T08:11:22;13.81;44.19
76577;DHT22;65441;44.748;37.600;2023-03-31T08:13:52;13.74;45.64
76577;DHT22;65441;44.748;37.600;2023-03-31T08:16:21;13.83;48.69
76577;DHT22;65441;44.748;37.600;2023-03-31T08:18:50;13.75;42.46
76577;DHT22;65441;44.748;37.600;2023-03-31T08:21:19;13.60;45.57
76577;DHT22;65441;44.748;37.600;2023-03-31T08:23:54;14.07;42.65
76577;DHT22;65441;44.748;37.600;2023-03-31T08:26:23;13.77;43.46
76577;DHT22;65441;44.748;37.600;2023-03-31T08:28:54;13.37;42.23
76577;DHT22;65441;44.748;37.600;2023-03-31T08:31:25;13.11;45.48
76577;DHT22;65441;44.748;37.600;2023-03-31T08:33:55;13.62;43.13
76577;DHT22;65441;44.748;37.600;2023-03-31T08:36:24;13.39;41.33
76577;DHT22;65441;44.748;37.600;2023-03-31T08:38:54;14.22;44.42
76577;DHT22;65441;44.748;37.600;2023-03-31T08:41:37;13.78;40.94
76577;DHT22;65441;44.748;37.600;2023-03-31T08:44:14;13.39;45.41
76577;DHT22;65441;44.748;37.600;2023-03-31T08:46:44;13.55;45.64
76577;DHT22;65441;44.748;37.600;2023-03-31T08:49:16;13.22;45.05
76577;DHT22;65441;44.748;37.600;2023-03-31T08:51:49;13.34;46.85
76577;DHT22;65441;44.748;37.600;2023-03-31T08:54:28;13.38;48.53
76577;DHT22;65441;44.748;37.600;2023-03-31T08:56:59;14.18;48.82
76577;DHT22;65441;44.748;37.600;2023-03-31T08:59:31;13.83;44.10
76577;DHT22;65441;44.748;37.600;2023-03-31T09:02:04;14.10;49.76
76577;DHT22;65441;44.748;37.600;2023-03-31T09:05:16;14.14;43.28
76577;DHT22;65441;44.748;37.600;2023-03-31T09:07:57;13.46;42.59
76577;DHT22;65441;44.748;37.600;2023-03-31T09:10:34;14.14;47.99
76577;DHT22;65441;44.748;37.600;2023-03-31T09:13:18;14.22;43.68
76577;DHT22;65441;44.748;37.600;2023-03-31T09:15:55;14.70;45.77
76577;DHT22;65441;44.748;37.600;2023-03-31T09:18:31;14.74;42.33
76577;DHT22;65441;44.748;37.600;2023-03-31T09:21:06;14.41;41.11
76577;DHT22;65441;44.748;37.600;2023-03-31T09:23:38;14.55;41.73
76577;DHT22;65441;44.748;37.600;2023-03-31T09:26:14;14.36;40.78
76577;DHT22;65441;44.748;37.600;2023-03-31T09:28:46;14.65;43.16
76577;DHT22;65441;44.748;37.600;2023-03-31T09:31:18;14.54;37.98
76577;DHT22;65441;44.748;37.600;2023-03-31T09:33:50;13.86;40.49
76577;DHT22;65441;44.748;37.600;2023-03-31T09:36:20;13.78;42.89
76577;DHT22;65441;44.748;37.600;2023-03-31T09:38:50;13.18;45.55
76577;DHT22;65441;44.748;37.600;2023-03-31T09:41:19;14.06;47.50
76577;DHT22;65441;44.748;37.600;2023-03-31T09:43:48;13.91;42.55
76577;DHT22;65441;44.748;37.600;2023-03-31T09:46:25;14.67;40.29
76577;DHT22;65441;44.748;37.600;2023-03-31T09:49:00;14.86;38.31
76577;DHT22;65441;44.748;37.600;2023-03-31T09:51:33;14.28;42.83
76577;DHT22;65441;44.748;37.600;2023-03-31T09:54:09;13.49;45.73
76577;DHT22;65441;44.748;37.600;2023-03-31T09:56:47;12.77;48.07
76577;DHT22;65441;44.748;37.600;2023-03-31T09:59:17;12.86;47.50
76577;DHT22;65441;44.748;37.600;2023-03-31T10:01:49;12.87;50.50
76577;DHT22;65441;44.748;37.600;2023-03-31T10:04:22;12.78;50.40
76577;DHT22;65441;44.748;37.600;2023-03-31T10:06:51;12.63;50.53
76577;DHT22;65441;44.748;37.600;2023-03-31T10:09:24;11.89;50.50
76577;DHT22;65441;44.748;37.600;2023-03-31T10:11:57;11.59;52.59
76577;DHT22;65441;44.748;37.600;2023-03-31T10:14:34;11.41;53.45
76577;DHT22;65441;44.748;37.600;2023-03-31T10:17:13;11.30;53.34
76577;DHT22;65441;44.748;37.600;2023-03-31T10:19:47;11.14;53.13
76577;DHT22;65441;44.748;37.600;2023-03-31T10:22:26;11.29;52.43
76577;DHT22;65441;44.748;37.600;2023-03-31T10:25:07;11.29;53.96
76577;DHT22;65441;44.748;37.600;2023-03-31T10:27:39;11.33;54.56
76577;DHT22;65441;44.748;37.600;2023-03-31T10:30:10;11.33;54.42
76577;DHT22;65441;44.748;37.600;2023-03-31T10:32:42;11.67;56.53
76577;DHT22;65441;44.748;37.600;2023-03-31T10:35:20;11.38;54.05
76577;DHT22;65441;44.748;37.600;2023-03-31T10:37:50;12.23;53.36
76577;DHT22;65441;44.748;37.600;2023-03-31T10:40:23;12.49;47.86
76577;DHT22;65441;44.748;37.600;2023-03-31T10:43:02;12.17;50.38
76577;DHT22;65441;44.748;37.600;2023-03-31T10:45:36;12.41;51.92
76577;DHT22;65441;44.748;37.600;2023-03-31T10:48:16;12.60;48.02
76577;DHT22;65441;44.748;37.600;2023-03-31T10:50:46;12.28;49.87
76577;DHT22;65441;44.748;37.600;2023-03-31T10:53:17;11.99;52.48
76577;DHT22;65441;44.748;37.600;2023-03-31T10:55:57;11.73;51.56
76577;DHT22;65441;44.748;37.600;2023-03-31T10:58:40;11.64;53.43
76577;DHT22;65441;44.748;37.600;2023-03-31T11:01:25;11.72;52.67
76577;DHT22;65441;44.748;37.600;2023-03-31T11:04:30;12.14;53.00
76577;DHT22;65441;44.748;37.600;2023-03-31T11:07:07;12.23;50.87
76577;DHT22;65441;44.748;37.600;2023-03-31T11:09:43;12.19;52.63
76577;DHT22;65441;44.748;37.600;2023-03-31T11:12:25;12.22;50.17
76577;DHT22;65441;44.748;37.600;2023-03-31T11:15:06;12.76;51.06
76577;DHT22;65441;44.748;37.600;2023-03-31T11:17:48;12.17;51.02
76577;DHT22;65441;44.748;37.600;2023-03-31T11:20:26;11.67;52.59
76577;DHT22;65441;44.748;37.600;2023-03-31T11:22:57;11.64;51.78
76577;DHT22;65441;44.748;37.600;2023-03-31T11:25:34;11.28;52.57
76577;DHT22;65441;44.748;37.600;2023-03-31T11:28:27;11.10;52.74
76577;DHT22;65441;44.748;37.600;2023-03-31T11:31:23;11.38;50.75
76577;DHT22;65441;44.748;37.600;2023-03-31T11:34:02;11.60;51.67
76577;DHT22;65441;44.748;37.600;2023-03-31T11:36:49;11.42;52.69
76577;DHT22;65441;44.748;37.600;2023-03-31T11:39:31;11.71;51.54
76577;DHT22;65441;44.748;37.600;2023-03-31T11:42:07;11.41;51.58
76577;DHT22;65441;44.748;37.600;2023-03-31T11:44:40;11.46;52.07
76577;DHT22;65441;44.748;37.600;2023-03-31T11:47:14;11.78;54.74
76577;DHT22;65441;44.748;37.600;2023-03-31T11:49:47;12.25;50.34
76577;DHT22;65441;44.748;37.600;2023-03-31T11:52:24;12.42;48.95
76577;DHT22;65441;44.748;37.600;2023-03-31T11:54:57;12.45;49.16
76577;DHT22;65441;44.748;37.600;2023-03-31T11:57:29;12.44;49.44
76577;DHT22;65441;44.748;37.600;2023-03-31T12:00:04;11.90;51.50
76577;DHT22;65441;44.748;37.600;2023-03-31T12:02:45;11.63;52.88
76577;DHT22;65441;44.748;37.600;2023-03-31T12:05:17;11.46;53.89
76577;DHT22;65441;44.748;37.600;2023-03-31T12:07:52;11.31;53.63
76577;DHT22;65441;44.748;37.600;2023-03-31T12:10:31;11.55;54.19
76577;DHT22;65441;44.748;37.600;2023-03-31T12:13:13;11.46;50.24
76577;DHT22;65441;44.748;37.600;2023-03-31T12:15:53;11.14;50.59
76577;DHT22;65441;44.748;37.600;2023-03-31T12:18:30;11.39;52.19
76577;DHT22;65441;44.748;37.600;2023-03-31T12:21:03;11.29;52.27
76577;DHT22;65441;44.748;37.600;2023-03-31T12:23:39;11.28;51.90
76577;DHT22;65441;44.748;37.600;2023-03-31T12:26:16;11.55;52.65
76577;DHT22;65441;44.748;37.600;2023-03-31T12:28:53;11.43;53.27
76577;DHT22;65441;44.748;37.600;2023-03-31T12:31:24;11.62;52.92
76577;DHT22;65441;44.748;37.600;2023-03-31T12:33:56;11.15;53.01
76577;DHT22;65441;44.748;37.600;2023-03-31T12:36:36;10.92;53.66
76577;DHT22;65441;44.748;37.600;2023-03-31T12:39:21;10.83;54.69
76577;DHT22;65441;44.748;37.600;2023-03-31T12:42:14;10.57;55.58
76577;DHT22;65441;44.748;37.600;2023-03-31T12:44:52;10.64;53.27
76577;DHT22;65441;44.748;37.600;2023-03-31T12:47:37;10.42;54.30
76577;DHT22;65441;44.748;37.600;2023-03-31T12:50:20;10.08;56.36
76577;DHT22;65441;44.748;37.600;2023-03-31T12:53:00;9.89;56.68
76577;DHT22;65441;44.748;37.600;2023-03-31T12:55:35;10.04;57.72
76577;DHT22;65441;44.748;37.600;2023-03-31T12:58:43;10.28;54.81
76577;DHT22;65441;44.748;37.600;2023-03-31T13:01:16;10.25;53.79
76577;DHT22;65441;44.748;37.600;2023-03-31T13:04:07;10.36;54.80
76577;DHT22;65441;44.748;37.600;2023-03-31T13:06:59;10.04;54.02
76577;DHT22;65441;44.748;37.600;2023-03-31T13:09:48;9.96;57.84
76577;DHT22;65441;44.748;37.600;2023-03-31T13:12:23;10.49;57.64
76577;DHT22;65441;44.748;37.600;2023-03-31T13:14:55;10.54;53.26
76577;DHT22;65441;44.748;37.600;2023-03-31T13:17:28;10.75;52.02
76577;DHT22;65441;44.748;37.600;2023-03-31T13:20:16;10.86;52.27
76577;DHT22;65441;44.748;37.600;2023-03-31T13:22:46;10.81;51.88
76577;DHT22;65441;44.748;37.600;2023-03-31T13:25:34;10.80;50.38
76577;DHT22;65441;44.748;37.600;2023-03-31T13:28:26;10.93;50.75
76577;DHT22;65441;44.748;37.600;2023-03-31T13:30:57;10.92;51.30
76577;DHT22;65441;44.748;37.600;2023-03-31T13:33:31;11.04;53.22
76577;DHT22;65441;44.748;37.600;2023-03-31T13:39:16;11.57;51.97
76577;DHT22;65441;44.748;37.600;2023-03-31T13:41:56;11.55;53.13
76577;DHT22;65441;44.748;37.600;2023-03-31T13:44:47;11.14;53.31
76577;DHT22;65441;44.748;37.600;2023-03-31T13:50:47;11.68;54.42
76577;DHT22;65441;44.748;37.600;2023-03-31T13:53:29;11.76;58.58
76577;DHT22;65441;44.748;37.600;2023-03-31T13:56:18;11.45;53.78
76577;DHT22;65441;44.748;37.600;2023-03-31T13:59:00;11.61;61.19
76577;DHT22;65441;44.748;37.600;2023-03-31T14:02:01;12.12;54.47
76577;DHT22;65441;44.748;37.600;2023-03-31T14:04:57;12.08;52.85
76577;DHT22;65441;44.748;37.600;2023-03-31T14:07:30;11.51;66.18
76577;DHT22;65441;44.748;37.600;2023-03-31T14:10:00;11.37;67.15
76577;DHT22;65441;44.748;37.600;2023-03-31T14:12:31;11.14;55.89
76577;DHT22;65441;44.748;37.600;2023-03-31T14:15:00;10.94;58.14
76577;DHT22;65441;44.748;37.600;2023-03-31T14:17:36;10.69;59.22
76577;DHT22;65441;44.748;37.600;2023-03-31T14:20:23;10.45;60.04
76577;DHT22;65441;44.748;37.600;2023-03-31T14:23:02;11.11;61.68
76577;DHT22;65441;44.748;37.600;2023-03-31T14:25:40;10.53;56.29
76577;DHT22;65441;44.748;37.600;2023-03-31T14:31:15;10.12;57.63
76577;DHT22;65441;44.748;37.600;2023-03-31T14:34:03;10.05;58.12
76577;DHT22;65441;44.748;37.600;2023-03-31T14:36:39;9.98;63.51
76577;DHT22;65441;44.748;37.600;2023-03-31T14:39:16;9.88;59.14
76577;DHT22;65441;44.748;37.600;2023-03-31T14:41:50;9.68;58.89
76577;DHT22;65441;44.748;37.600;2023-03-31T14:44:20;9.42;64.04
76577;DHT22;65441;44.748;37.600;2023-03-31T14:46:50;9.70;63.27
76577;DHT22;65441;44.748;37.600;2023-03-31T14:49:25;9.92;66.46
76577;DHT22;65441;44.748;37.600;2023-03-31T14:51:59;9.75;59.32
76577;DHT22;65441;44.748;37.600;2023-03-31T14:54:33;9.39;60.56
76577;DHT22;65441;44.748;37.600;2023-03-31T14:57:04;9.16;62.56
76577;DHT22;65441;44.748;37.600;2023-03-31T14:59:34;9.36;65.13
76577;DHT22;65441;44.748;37.600;2023-03-31T15:02:04;9.46;65.11
76577;DHT22;65441;44.748;37.600;2023-03-31T15:04:39;9.36;59.99
76577;DHT22;65441;44.748;37.600;2023-03-31T15:07:13;9.19;60.69
76577;DHT22;65441;44.748;37.600;2023-03-31T15:09:47;8.93;61.38
76577;DHT22;65441;44.748;37.600;2023-03-31T15:12:19;8.68;62.08
76577;DHT22;65441;44.748;37.600;2023-03-31T15:14:49;8.55;62.50
76577;DHT22;65441;44.748;37.600;2023-03-31T15:17:21;8.45;63.66
76577;DHT22;65441;44.748;37.600;2023-03-31T15:19:57;8.31;63.64
76577;DHT22;65441;44.748;37.600;2023-03-31T15:22:27;8.35;63.66
76577;DHT22;65441;44.748;37.600;2023-03-31T15:24:57;8.29;64.05
76577;DHT22;65441;44.748;37.600;2023-03-31T15:27:37;8.27;64.26
76577;DHT22;65441;44.748;37.600;2023-03-31T15:30:13;8.26;64.88
76577;DHT22;65441;44.748;37.600;2023-03-31T15:32:44;8.14;64.82
76577;DHT22;65441;44.748;37.600;2023-03-31T15:35:20;8.11;65.49
76577;DHT22;65441;44.748;37.600;2023-03-31T15:37:51;8.04;65.11
76577;DHT22;65441;44.748;37.600;2023-03-31T15:40:25;8.04;64.70
76577;DHT22;65441;44.748;37.600;2023-03-31T15:42:57;8.00;65.13
76577;DHT22;65441;44.748;37.600;2023-03-31T15:45:39;7.90;65.14
76577;DHT22;65441;44.748;37.600;2023-03-31T15:48:17;7.86;65.33
76577;DHT22;65441;44.748;37.600;2023-03-31T15:50:49;7.83;65.20
76577;DHT22;65441;44.748;37.600;2023-03-31T15:53:28;7.72;65.95
76577;DHT22;65441;44.748;37.600;2023-03-31T15:55:58;7.71;65.69
76577;DHT22;65441;44.748;37.600;2023-03-31T15:58:51;7.70;65.82
76577;DHT22;65441;44.748;37.600;2023-03-31T16:01:21;7.60;67.80
76577;DHT22;65441;44.748;37.600;2023-03-31T16:03:52;7.58;65.43
76577;DHT22;65441;44.748;37.600;2023-03-31T16:06:30;7.57;65.82
76577;DHT22;65441;44.748;37.600;2023-03-31T16:09:01;7.54;65.51
76577;DHT22;65441;44.748;37.600;2023-03-31T16:11:36;7.42;65.95
76577;DHT22;65441;44.748;37.600;2023-03-31T16:14:12;7.39;66.01
76577;DHT22;65441;44.748;37.600;2023-03-31T16:16:49;7.41;66.30